createdAt,value
2023-02-14T00:02:28.312Z,103451.16
2023-02-14T00:05:29.867Z,103459.94
2023-02-14T00:08:31.960Z,103452.03
2023-02-14T00:11:33.576Z,103449.41
2023-02-14T00:14:53.663Z,103447.66
2023-02-14T00:17:59.715Z,103437.97
2023-02-14T00:21:01.375Z,103444.13
2023-02-14T00:24:05.845Z,103448.50
2023-02-14T00:27:07.533Z,103443.25
2023-02-14T00:30:11.338Z,103440.59
2023-02-14T00:33:12.887Z,103441.50
2023-02-14T00:36:14.470Z,103430.97
2023-02-14T00:39:17.369Z,103438.00
2023-02-14T00:42:18.955Z,103431.88
2023-02-14T00:45:20.503Z,103433.59
2023-02-14T00:48:22.092Z,103433.63
2023-02-14T00:51:23.955Z,103431.88
2023-02-14T00:54:25.722Z,103435.38
2023-02-14T00:57:27.313Z,103437.13
2023-02-14T01:00:28.983Z,103440.66
2023-02-14T01:03:30.995Z,103441.53
2023-02-14T01:06:32.553Z,103445.06
2023-02-14T01:09:34.169Z,103442.41
2023-02-14T01:12:35.669Z,103426.63
2023-02-14T01:15:43.163Z,103436.25
2023-02-14T01:18:45.442Z,103424.84
2023-02-14T01:21:47.041Z,103423.13
2023-02-14T01:24:48.585Z,103416.06
2023-02-14T01:27:50.133Z,103419.59
2023-02-14T01:30:51.968Z,103414.31
2023-02-14T01:33:54.260Z,103411.69
2023-02-14T01:36:55.829Z,103423.13
2023-02-14T01:39:57.370Z,103416.06
2023-02-14T01:42:58.887Z,103413.44
2023-02-14T01:46:00.480Z,103416.06
2023-02-14T01:49:18.477Z,103415.19
2023-02-14T01:52:23.998Z,103418.69
2023-02-14T01:55:30.399Z,103408.19
2023-02-14T01:58:36.507Z,103409.91
2023-02-14T02:01:39.182Z,103409.91
2023-02-14T02:04:45.923Z,103413.44
2023-02-14T02:07:47.486Z,103394.09
2023-02-14T02:10:49.009Z,103399.38
2023-02-14T02:13:50.591Z,103389.72
2023-02-14T02:17:20.497Z,103384.44
2023-02-14T02:20:43.006Z,103384.44
2023-02-14T02:24:06.639Z,103380.03
2023-02-14T02:27:47.002Z,103383.56
2023-02-14T02:31:04.072Z,103387.94
2023-02-14T02:34:43.427Z,103393.22
2023-02-14T02:38:08.336Z,103382.66
2023-02-14T02:41:23.034Z,103374.75
2023-02-14T02:44:39.109Z,103382.63
2023-02-14T02:48:05.445Z,103377.34
2023-02-14T02:51:31.573Z,103380.84
2023-02-14T02:55:03.469Z,103386.09
2023-02-14T02:58:05.345Z,103377.25
2023-02-14T03:01:14.344Z,103379.00
2023-02-14T03:04:36.767Z,103378.09
2023-02-14T03:07:39.807Z,103378.09
2023-02-14T03:10:41.433Z,103369.28
2023-02-14T03:13:49.374Z,103372.78
2023-02-14T03:16:50.842Z,103373.63
2023-02-14T03:20:10.715Z,103371.84
2023-02-14T03:23:12.184Z,103369.16
2023-02-14T03:26:33.853Z,103368.28
2023-02-14T03:30:03.128Z,103372.66
2023-02-14T03:33:16.943Z,103359.44
2023-02-14T03:36:27.829Z,103356.78
2023-02-14T03:39:52.784Z,103348.88
2023-02-14T03:43:02.979Z,103350.59
2023-02-14T03:46:13.941Z,103349.69
2023-02-14T03:49:22.163Z,103345.25
2023-02-14T03:52:27.022Z,103353.13
2023-02-14T03:55:36.412Z,103345.22
2023-02-14T03:58:41.598Z,103345.16
2023-02-14T04:01:55.625Z,103343.34
2023-02-14T04:04:59.910Z,103342.41
2023-02-14T04:08:01.539Z,103337.16
2023-02-14T04:11:04.613Z,103335.38
2023-02-14T04:14:06.380Z,103331.81
2023-02-14T04:17:27.442Z,103334.47
2023-02-14T04:20:30.315Z,103331.78
2023-02-14T04:23:32.148Z,103320.38
2023-02-14T04:26:33.692Z,103327.38
2023-02-14T04:29:55.614Z,103329.06
2023-02-14T04:32:57.210Z,103320.28
2023-02-14T04:35:59.357Z,103321.97
2023-02-14T04:39:00.882Z,103317.56
2023-02-14T04:42:02.798Z,103315.81
2023-02-14T04:45:04.600Z,103321.03
2023-02-14T04:48:06.321Z,103318.34
2023-02-14T04:51:07.880Z,103320.06
2023-02-14T04:54:09.459Z,103310.41
2023-02-14T04:57:11.008Z,103300.75
2023-02-14T05:00:13.186Z,103310.38
2023-02-14T05:03:14.755Z,103299.81
2023-02-14T05:06:16.356Z,103294.53
2023-02-14T05:09:17.974Z,103297.13
2023-02-14T05:12:19.720Z,103296.25
2023-02-14T05:15:21.217Z,103290.94
2023-02-14T05:18:22.811Z,103285.63
2023-02-14T05:21:24.457Z,103279.44
2023-02-14T05:24:26.014Z,103278.50
2023-02-14T05:27:27.534Z,103277.53
2023-02-14T05:30:30.446Z,103280.13
2023-02-14T05:33:32.160Z,103278.34
2023-02-14T05:36:33.812Z,103280.06
2023-02-14T05:39:35.370Z,103274.84
2023-02-14T05:42:36.944Z,103271.34
2023-02-14T05:45:38.762Z,103270.50
2023-02-14T05:48:40.365Z,103276.69
2023-02-14T05:51:41.940Z,103278.44
2023-02-14T05:54:43.470Z,103274.06
2023-02-14T05:57:45.028Z,103276.59
2023-02-14T06:00:46.592Z,103287.06
2023-02-14T06:03:48.170Z,103283.47
2023-02-14T06:06:49.717Z,103288.69
2023-02-14T06:09:51.280Z,103294.78
2023-02-14T06:12:53.816Z,103291.28
2023-02-14T06:15:55.393Z,103299.16
2023-02-14T06:18:56.935Z,103293.06
2023-02-14T06:21:58.471Z,103293.19
2023-02-14T06:25:00.025Z,103301.81
2023-02-14T06:28:01.629Z,103294.16
2023-02-14T06:31:03.503Z,103295.06
2023-02-14T06:34:05.235Z,103300.22
2023-02-14T06:37:07.789Z,103299.28
2023-02-14T06:40:10.461Z,103291.34
2023-02-14T06:43:12.088Z,103293.03
2023-02-14T06:46:13.663Z,103291.25
2023-02-14T06:49:15.350Z,103296.41
2023-02-14T06:52:16.888Z,103300.72
2023-02-14T06:55:18.906Z,103298.03
2023-02-14T06:58:20.785Z,103292.72
2023-02-14T07:01:22.363Z,103296.16
2023-02-14T07:04:24.037Z,103295.19
2023-02-14T07:07:25.587Z,103299.50
2023-02-14T07:10:27.151Z,103293.31
2023-02-14T07:13:28.730Z,103292.44
2023-02-14T07:16:30.328Z,103298.53
2023-02-14T07:19:31.889Z,103288.91
2023-02-14T07:22:34.114Z,103289.81
2023-02-14T07:25:35.651Z,103281.94
2023-02-14T07:28:37.284Z,103277.53
2023-02-14T07:31:38.892Z,103274.91
2023-02-14T07:34:40.588Z,103281.97
2023-02-14T07:37:42.167Z,103272.41
2023-02-14T07:40:43.773Z,103267.19
2023-02-14T07:43:45.472Z,103272.53
2023-02-14T07:46:47.070Z,103269.97
2023-02-14T07:49:48.687Z,103259.50
2023-02-14T07:52:50.654Z,103273.59
2023-02-14T07:55:52.793Z,103267.53
2023-02-14T07:58:54.767Z,103269.34
2023-02-14T08:01:56.433Z,103278.16
2023-02-14T08:04:58.005Z,103279.97
2023-02-14T08:07:59.616Z,103273.88
2023-02-14T08:11:02.054Z,103277.47
2023-02-14T08:14:05.075Z,103278.44
2023-02-14T08:17:07.545Z,103287.28
2023-02-14T08:20:09.479Z,103278.59
2023-02-14T08:23:11.358Z,103281.25
2023-02-14T08:26:12.896Z,103289.19
2023-02-14T08:29:16.627Z,103280.47
2023-02-14T08:32:20.932Z,103291.03
2023-02-14T08:35:24.483Z,103284.06
2023-02-14T08:38:27.554Z,103284.97
2023-02-14T08:41:29.135Z,103278.84
2023-02-14T08:44:30.683Z,103282.38
2023-02-14T08:47:38.291Z,103292.06
2023-02-14T08:50:40.326Z,103292.94
2023-02-14T08:53:43.060Z,103285.94
2023-02-14T08:56:44.647Z,103278.91
2023-02-14T08:59:46.182Z,103285.09
2023-02-14T09:02:51.620Z,103281.56
2023-02-14T09:05:53.306Z,103278.94
2023-02-14T09:08:55.298Z,103276.34
2023-02-14T09:11:57.373Z,103279.88
2023-02-14T09:14:59.037Z,103269.34
2023-02-14T09:18:00.887Z,103279.88
2023-02-14T09:21:06.905Z,103270.22
2023-02-14T09:24:08.466Z,103270.22
2023-02-14T09:27:10.563Z,103262.34
2023-02-14T09:30:12.997Z,103259.69
2023-02-14T09:33:14.575Z,103257.91
2023-02-14T09:36:34.666Z,103262.31
2023-02-14T09:39:37.287Z,103261.44
2023-02-14T09:42:46.733Z,103270.19
2023-02-14T09:45:53.069Z,103256.13
2023-02-14T09:48:56.196Z,103260.47
2023-02-14T09:52:00.886Z,103262.22
2023-02-14T09:55:03.890Z,103256.88
2023-02-14T09:58:17.619Z,103255.13
2023-02-14T10:01:26.432Z,103259.50
2023-02-14T10:04:39.930Z,103258.56
2023-02-14T10:07:56.875Z,103259.31
2023-02-14T10:11:15.580Z,103258.22
2023-02-14T10:14:25.190Z,103259.00
2023-02-14T10:17:49.546Z,103263.34
2023-02-14T10:20:59.818Z,103258.91
2023-02-14T10:24:15.979Z,103260.63
2023-02-14T10:27:29.450Z,103264.03
2023-02-14T10:30:39.533Z,103263.00
2023-02-14T10:33:44.240Z,103262.84
2023-02-14T10:37:10.162Z,103260.03
2023-02-14T10:40:39.476Z,103251.06
2023-02-14T10:44:02.799Z,103250.97
2023-02-14T10:47:26.939Z,103252.63
2023-02-14T10:50:57.639Z,103250.69
2023-02-14T10:54:21.722Z,103245.31
2023-02-14T10:57:29.544Z,103238.09
2023-02-14T11:00:35.610Z,103237.00
2023-02-14T11:03:43.859Z,103226.19
2023-02-14T11:06:49.166Z,103234.75
2023-02-14T11:09:50.864Z,103231.81
2023-02-14T11:12:52.916Z,103234.16
2023-02-14T11:15:59.874Z,103226.78
2023-02-14T11:19:27.810Z,103221.22
2023-02-14T11:22:31.107Z,103212.09
2023-02-14T11:25:35.284Z,103218.09
2023-02-14T11:28:45.943Z,103211.72
2023-02-14T11:31:47.932Z,103207.94
2023-02-14T11:35:01.543Z,103205.84
2023-02-14T11:38:06.186Z,103198.59
2023-02-14T11:41:11.406Z,103198.38
2023-02-14T11:44:22.438Z,103192.78
2023-02-14T11:47:29.995Z,103184.50
2023-02-14T11:50:32.239Z,103190.47
2023-02-14T11:53:45.785Z,103180.56
2023-02-14T11:56:55.546Z,103173.38
2023-02-14T11:59:59.134Z,103170.59
2023-02-14T12:03:05.655Z,103172.28
2023-02-14T12:06:07.241Z,103165.97
2023-02-14T12:09:24.506Z,103160.56
2023-02-14T12:12:26.251Z,103168.41
2023-02-14T12:15:51.987Z,103159.50
2023-02-14T12:19:02.218Z,103162.09
2023-02-14T12:22:06.417Z,103150.56
2023-02-14T12:25:16.279Z,103151.38
2023-02-14T12:28:28.221Z,103148.72
2023-02-14T12:31:30.036Z,103141.63
2023-02-14T12:34:31.673Z,103138.06
2023-02-14T12:38:05.081Z,103140.63
2023-02-14T12:41:25.311Z,103121.84
2023-02-14T12:44:38.689Z,103129.75
2023-02-14T12:48:04.888Z,103122.53
2023-02-14T12:51:06.352Z,103109.13
2023-02-14T12:54:42.206Z,103110.88
2023-02-14T12:58:08.381Z,103098.38
2023-02-14T13:01:39.001Z,103091.25
2023-02-14T13:04:49.055Z,103083.38
2023-02-14T13:08:08.622Z,103081.66
2023-02-14T13:11:34.440Z,103071.97
2023-02-14T13:14:56.217Z,103079.00
2023-02-14T13:18:06.254Z,103065.63
2023-02-14T13:21:11.707Z,103064.66
2023-02-14T13:24:27.456Z,103077.06
2023-02-14T13:27:34.465Z,103061.13
2023-02-14T13:30:37.651Z,103058.44
2023-02-14T13:33:44.243Z,103057.50
2023-02-14T13:36:46.825Z,103050.31
2023-02-14T13:40:06.823Z,103047.66
2023-02-14T13:43:08.561Z,103044.16
2023-02-14T13:46:10.138Z,103044.25
2023-02-14T13:49:32.066Z,103033.69
2023-02-14T13:52:48.017Z,103031.22
2023-02-14T13:55:55.846Z,103028.66
2023-02-14T13:59:05.910Z,103030.50
2023-02-14T14:02:30.255Z,103031.47
2023-02-14T14:05:40.480Z,103028.00
2023-02-14T14:08:45.299Z,103019.22
2023-02-14T14:11:46.865Z,103019.31
2023-02-14T14:15:14.368Z,103016.16
2023-02-14T14:18:15.896Z,103023.41
2023-02-14T14:21:28.454Z,103019.84
2023-02-14T14:24:41.238Z,103015.66
2023-02-14T14:27:46.097Z,103016.81
2023-02-14T14:30:48.326Z,103011.66
2023-02-14T14:33:59.317Z,103007.44
2023-02-14T14:37:08.005Z,103008.47
2023-02-14T14:40:22.823Z,103010.28
2023-02-14T14:43:26.871Z,103009.22
2023-02-14T14:46:28.576Z,103003.91
2023-02-14T14:49:32.465Z,103004.00
2023-02-14T14:52:38.325Z,103004.00
2023-02-14T14:55:46.250Z,103006.75
2023-02-14T14:58:48.614Z,102997.97
2023-02-14T15:01:51.303Z,102994.59
2023-02-14T15:04:53.592Z,102994.78
2023-02-14T15:07:55.296Z,103003.72
2023-02-14T15:11:13.220Z,102997.44
2023-02-14T15:14:22.671Z,102990.97
2023-02-14T15:17:29.873Z,102982.22
2023-02-14T15:20:31.587Z,102979.72
2023-02-14T15:23:33.272Z,102976.38
2023-02-14T15:26:35.869Z,102978.34
2023-02-14T15:29:37.490Z,102975.88
2023-02-14T15:32:39.286Z,102972.53
2023-02-14T15:35:42.458Z,102969.16
2023-02-14T15:38:44.106Z,102948.16
2023-02-14T15:41:46.205Z,102955.44
2023-02-14T15:44:47.758Z,102947.69
2023-02-14T15:47:52.329Z,102956.66
2023-02-14T15:50:58.902Z,102949.84
2023-02-14T15:54:03.473Z,102946.50
2023-02-14T15:57:07.793Z,102946.63
2023-02-14T16:00:17.286Z,102947.69
2023-02-14T16:03:33.730Z,102946.09
2023-02-14T16:06:44.676Z,102942.69
2023-02-14T16:09:46.258Z,102939.34
2023-02-14T16:13:14.113Z,102944.97
2023-02-14T16:16:17.053Z,102942.31
2023-02-14T16:19:39.383Z,102939.91
2023-02-14T16:22:40.923Z,102940.22
2023-02-14T16:25:42.502Z,102943.13
2023-02-14T16:28:44.103Z,102945.13
2023-02-14T16:35:20.958Z,102935.78
2023-02-14T16:38:23.149Z,102942.25
2023-02-14T16:41:27.403Z,102934.47
2023-02-14T16:44:28.954Z,102942.53
2023-02-14T16:47:30.518Z,102931.19
2023-02-14T16:50:32.574Z,102934.00
2023-02-14T16:53:34.170Z,102943.88
2023-02-14T16:56:47.983Z,102936.13
2023-02-14T16:59:50.621Z,102943.31
2023-02-14T17:02:52.254Z,102937.22
2023-02-14T17:05:57.630Z,102939.97
2023-02-14T17:09:02.720Z,102941.84
2023-02-14T17:12:13.313Z,102948.13
2023-02-14T17:15:18.612Z,102940.28
2023-02-14T17:18:23.655Z,102943.06
2023-02-14T17:21:26.541Z,102941.44
2023-02-14T17:24:28.136Z,102930.88
2023-02-14T17:27:29.674Z,102938.00
2023-02-14T17:30:31.504Z,102939.91
2023-02-14T17:33:33.554Z,102945.31
2023-02-14T17:36:35.073Z,102934.00
2023-02-14T17:39:36.647Z,102933.19
2023-02-14T17:42:41.371Z,102930.59
2023-02-14T17:45:42.901Z,102931.66
2023-02-14T17:48:45.736Z,102933.53
2023-02-14T17:51:47.272Z,102931.91
2023-02-14T17:54:48.891Z,102928.50
2023-02-14T17:57:53.212Z,102924.19
2023-02-14T18:00:54.748Z,102925.19
2023-02-14T18:03:56.378Z,102921.81
2023-02-14T18:06:57.889Z,102919.28
2023-02-14T18:09:59.483Z,102918.50
2023-02-14T18:13:01.225Z,102917.75
2023-02-14T18:16:12.401Z,102916.94
2023-02-14T18:19:16.011Z,102915.28
2023-02-14T18:22:17.569Z,102903.88
2023-02-14T18:25:19.230Z,102908.34
2023-02-14T18:28:21.701Z,102903.13
2023-02-14T18:31:23.361Z,102899.69
2023-02-14T18:34:25.019Z,102898.91
2023-02-14T18:37:26.560Z,102906.88
2023-02-14T18:40:28.549Z,102898.13
2023-02-14T18:43:30.171Z,102904.38
2023-02-14T18:46:35.285Z,102897.38
2023-02-14T18:49:36.852Z,102889.50
2023-02-14T18:52:39.065Z,102888.66
2023-02-14T18:55:40.899Z,102892.22
2023-02-14T18:58:46.233Z,102894.91
2023-02-14T19:01:47.816Z,102894.06
2023-02-14T19:04:49.539Z,102894.09
2023-02-14T19:07:54.750Z,102889.69
2023-02-14T19:10:56.336Z,102885.34
2023-02-14T19:13:59.618Z,102894.19
2023-02-14T19:17:01.203Z,102899.50
2023-02-14T19:20:08.527Z,102884.59
2023-02-14T19:23:10.057Z,102890.81
2023-02-14T19:26:23.898Z,102887.38
2023-02-14T19:29:25.566Z,102889.19
2023-02-14T19:32:27.633Z,102886.59
2023-02-14T19:35:29.225Z,102876.97
2023-02-14T19:38:30.822Z,102883.22
2023-02-14T19:41:36.939Z,102884.19
2023-02-14T19:44:38.944Z,102882.50
2023-02-14T19:47:47.082Z,102882.53
2023-02-14T19:50:50.028Z,102872.94
2023-02-14T19:53:51.775Z,102873.84
2023-02-14T19:56:54.001Z,102878.31
2023-02-14T19:59:55.593Z,102878.34
2023-02-14T20:03:00.490Z,102874.88
2023-02-14T20:06:02.058Z,102873.16
2023-02-14T20:09:04.926Z,102867.03
2023-02-14T20:12:06.959Z,102859.16
2023-02-14T20:15:10.916Z,102858.34
2023-02-14T20:18:12.615Z,102850.44
2023-02-14T20:21:25.621Z,102845.06
2023-02-14T20:24:31.828Z,102843.25
2023-02-14T20:27:33.369Z,102842.38
2023-02-14T20:30:34.999Z,102832.78
2023-02-14T20:33:37.008Z,102836.31
2023-02-14T20:36:39.491Z,102824.94
2023-02-14T20:39:41.062Z,102835.47
2023-02-14T20:42:42.607Z,102827.59
2023-02-14T20:45:44.265Z,102831.13
2023-02-14T20:48:45.886Z,102827.66
2023-02-14T20:51:49.781Z,102834.69
2023-02-14T20:54:51.449Z,102820.69
2023-02-14T20:57:53.741Z,102818.06
2023-02-14T21:00:56.401Z,102810.22
2023-02-14T21:03:58.128Z,102816.41
2023-02-14T21:07:04.053Z,102811.16
2023-02-14T21:10:07.263Z,102818.22
2023-02-14T21:13:08.832Z,102809.44
2023-02-14T21:16:16.095Z,102816.41
2023-02-14T21:19:17.694Z,102812.94
2023-02-14T21:22:19.332Z,102814.66
2023-02-14T21:25:23.383Z,102807.69
2023-02-14T21:28:26.261Z,102814.66
2023-02-14T21:31:28.190Z,102804.16
2023-02-14T21:34:29.882Z,102805.06
2023-02-14T21:37:32.110Z,102801.56
2023-02-14T21:40:33.718Z,102810.34
2023-02-14T21:43:38.405Z,102803.34
2023-02-14T21:46:41.107Z,102807.75
2023-02-14T21:50:01.198Z,102803.38
2023-02-14T21:53:02.804Z,102801.59
2023-02-14T21:56:12.318Z,102797.25
2023-02-14T21:59:13.920Z,102792.88
2023-02-14T22:02:15.498Z,102794.66
2023-02-14T22:05:17.193Z,102796.44
2023-02-14T22:08:18.722Z,102799.06
2023-02-14T22:11:21.415Z,102792.94
2023-02-14T22:14:23.047Z,102793.81
2023-02-14T22:17:24.629Z,102787.72
2023-02-14T22:20:26.202Z,102780.69
2023-02-14T22:23:30.715Z,102771.06
2023-02-14T22:26:35.403Z,102777.19
2023-02-14T22:29:37.139Z,102779.88
2023-02-14T22:32:38.699Z,102776.38
2023-02-14T22:35:40.241Z,102772.84
2023-02-14T22:38:42.573Z,102772.84
2023-02-14T22:41:44.193Z,102775.50
2023-02-14T22:44:45.751Z,102768.47
2023-02-14T22:47:47.299Z,102774.63
2023-02-14T22:50:48.819Z,102767.63
2023-02-14T22:53:53.028Z,102778.13
2023-02-14T22:56:54.616Z,102762.38
2023-02-14T22:59:56.155Z,102769.38
2023-02-14T23:02:57.809Z,102764.13
2023-02-14T23:06:00.629Z,102764.16
2023-02-14T23:09:04.211Z,102765.88
2023-02-14T23:12:26.045Z,102760.66
2023-02-14T23:15:46.431Z,102766.75
2023-02-14T23:19:06.484Z,102759.75
2023-02-14T23:22:19.747Z,102759.75
2023-02-14T23:25:21.341Z,102758.91
2023-02-14T23:28:22.900Z,102757.13
2023-02-14T23:31:24.647Z,102765.00
2023-02-14T23:34:28.626Z,102756.28
2023-02-14T23:37:30.256Z,102758.03
2023-02-14T23:40:51.861Z,102759.75
2023-02-14T23:43:53.398Z,102761.53
2023-02-14T23:46:57.251Z,102747.50
2023-02-14T23:49:58.803Z,102743.13
2023-02-14T23:53:00.357Z,102751.91
2023-02-14T23:56:03.226Z,102744.91
2023-02-14T23:59:06.334Z,102739.66
